sensor_id;sensor_type;location;lat;lon;timestamp;pressure;altitude;pressure_sealevel;temperature;humidity
22649;BME280;11491;41.942;24.220;2023-03-19T00:02:24;90280.59;;;-1.63;73.62
22649;BME280;11491;41.942;24.220;2023-03-19T00:04:50;90280.06;;;-1.75;73.97
22649;BME280;11491;41.942;24.220;2023-03-19T00:07:17;90276.16;;;-1.57;73.75
22649;BME280;11491;41.942;24.220;2023-03-19T00:09:44;90287.41;;;-1.57;73.28
22649;BME280;11491;41.942;24.220;2023-03-19T00:12:14;90282.69;;;-1.70;73.42
22649;BME280;11491;41.942;24.220;2023-03-19T00:14:41;90284.28;;;-1.69;73.63
22649;BME280;11491;41.942;24.220;2023-03-19T00:17:07;90272.75;;;-1.68;73.07
22649;BME280;11491;41.942;24.220;2023-03-19T00:19:34;90277.19;;;-1.74;73.84
22649;BME280;11491;41.942;24.220;2023-03-19T00:22:01;90282.16;;;-1.77;74.35
22649;BME280;11491;41.942;24.220;2023-03-19T00:24:28;90267.47;;;-1.83;74.59
22649;BME280;11491;41.942;24.220;2023-03-19T00:26:55;90265.63;;;-1.78;75.06
22649;BME280;11491;41.942;24.220;2023-03-19T00:29:23;90274.81;;;-1.75;74.21
22649;BME280;11491;41.942;24.220;2023-03-19T00:31:50;90280.06;;;-1.85;74.34
22649;BME280;11491;41.942;24.220;2023-03-19T00:34:17;90275.88;;;-1.81;74.05
22649;BME280;11491;41.942;24.220;2023-03-19T00:36:44;90269.03;;;-1.82;73.90
22649;BME280;11491;41.942;24.220;2023-03-19T00:39:11;90266.66;;;-1.89;74.13
22649;BME280;11491;41.942;24.220;2023-03-19T00:41:38;90260.63;;;-1.89;74.59
22649;BME280;11491;41.942;24.220;2023-03-19T00:44:05;90260.59;;;-2.05;74.68
22649;BME280;11491;41.942;24.220;2023-03-19T00:46:33;90261.16;;;-2.03;75.17
22649;BME280;11491;41.942;24.220;2023-03-19T00:49:01;90248.59;;;-1.96;75.26
22649;BME280;11491;41.942;24.220;2023-03-19T00:51:28;90249.06;;;-2.04;75.89
22649;BME280;11491;41.942;24.220;2023-03-19T00:53:55;90243.03;;;-2.20;75.96
22649;BME280;11491;41.942;24.220;2023-03-19T00:56:21;90241.75;;;-2.02;75.22
22649;BME280;11491;41.942;24.220;2023-03-19T00:58:48;90244.34;;;-2.12;76.28
22649;BME280;11491;41.942;24.220;2023-03-19T01:01:16;90239.88;;;-2.11;75.97
22649;BME280;11491;41.942;24.220;2023-03-19T01:03:44;90240.94;;;-2.07;75.91
22649;BME280;11491;41.942;24.220;2023-03-19T01:06:12;90248.03;;;-2.03;75.33
22649;BME280;11491;41.942;24.220;2023-03-19T01:08:39;90225.75;;;-2.10;75.20
22649;BME280;11491;41.942;24.220;2023-03-19T01:11:07;90237.56;;;-1.92;74.74
22649;BME280;11491;41.942;24.220;2023-03-19T01:13:35;90232.31;;;-2.03;75.06
22649;BME280;11491;41.942;24.220;2023-03-19T01:16:02;90232.84;;;-1.96;75.14
22649;BME280;11491;41.942;24.220;2023-03-19T01:18:29;90226.03;;;-1.91;73.94
22649;BME280;11491;41.942;24.220;2023-03-19T01:20:57;90232.84;;;-2.11;74.42
22649;BME280;11491;41.942;24.220;2023-03-19T01:23:24;90230.22;;;-2.11;75.22
22649;BME280;11491;41.942;24.220;2023-03-19T01:25:51;90224.44;;;-2.13;75.68
22649;BME280;11491;41.942;24.220;2023-03-19T01:28:18;90227.03;;;-2.23;76.32
22649;BME280;11491;41.942;24.220;2023-03-19T01:30:45;90222.59;;;-2.23;76.37
22649;BME280;11491;41.942;24.220;2023-03-19T01:33:11;90223.38;;;-2.17;76.15
22649;BME280;11491;41.942;24.220;2023-03-19T01:35:38;90228.16;;;-1.99;75.05
22649;BME280;11491;41.942;24.220;2023-03-19T01:38:07;90235.97;;;-2.04;74.84
22649;BME280;11491;41.942;24.220;2023-03-19T01:40:33;90224.94;;;-2.21;75.54
22649;BME280;11491;41.942;24.220;2023-03-19T01:43:12;90224.97;;;-2.16;75.40
22649;BME280;11491;41.942;24.220;2023-03-19T01:45:41;90230.47;;;-2.07;74.85
22649;BME280;11491;41.942;24.220;2023-03-19T01:48:15;90233.34;;;-2.09;74.59
22649;BME280;11491;41.942;24.220;2023-03-19T01:50:44;90224.84;;;-2.52;76.35
22649;BME280;11491;41.942;24.220;2023-03-19T01:53:14;90220.03;;;-2.86;77.11
22649;BME280;11491;41.942;24.220;2023-03-19T01:55:43;90234.69;;;-2.79;77.99
22649;BME280;11491;41.942;24.220;2023-03-19T01:58:12;90226.38;;;-2.61;77.58
22649;BME280;11491;41.942;24.220;2023-03-19T02:00:39;90221.22;;;-2.51;76.91
22649;BME280;11491;41.942;24.220;2023-03-19T02:03:06;90232.09;;;-2.79;78.13
22649;BME280;11491;41.942;24.220;2023-03-19T02:05:34;90232.56;;;-2.88;78.51
22649;BME280;11491;41.942;24.220;2023-03-19T02:08:05;90227.09;;;-2.81;78.68
22649;BME280;11491;41.942;24.220;2023-03-19T02:10:35;90231.13;;;-2.58;77.37
22649;BME280;11491;41.942;24.220;2023-03-19T02:13:02;90230.09;;;-2.52;77.34
22649;BME280;11491;41.942;24.220;2023-03-19T02:15:29;90236.63;;;-2.54;77.39
22649;BME280;11491;41.942;24.220;2023-03-19T02:17:56;90238.44;;;-2.60;77.68
22649;BME280;11491;41.942;24.220;2023-03-19T02:20:26;90247.28;;;-2.71;77.97
22649;BME280;11491;41.942;24.220;2023-03-19T02:23:01;90244.22;;;-2.63;77.96
22649;BME280;11491;41.942;24.220;2023-03-19T02:25:36;90250.53;;;-2.49;77.56
22649;BME280;11491;41.942;24.220;2023-03-19T02:28:07;90241.16;;;-2.34;76.33
22649;BME280;11491;41.942;24.220;2023-03-19T02:30:35;90245.59;;;-2.35;76.21
22649;BME280;11491;41.942;24.220;2023-03-19T02:33:03;90244.06;;;-2.31;76.25
22649;BME280;11491;41.942;24.220;2023-03-19T02:35:32;90248.72;;;-2.48;76.25
22649;BME280;11491;41.942;24.220;2023-03-19T02:38:00;90254.16;;;-2.60;77.30
22649;BME280;11491;41.942;24.220;2023-03-19T02:40:31;90258.34;;;-2.59;77.08
22649;BME280;11491;41.942;24.220;2023-03-19T02:42:59;90243.66;;;-2.70;77.32
22649;BME280;11491;41.942;24.220;2023-03-19T02:45:29;90243.97;;;-2.51;76.81
22649;BME280;11491;41.942;24.220;2023-03-19T02:47:57;90241.13;;;-2.45;75.93
22649;BME280;11491;41.942;24.220;2023-03-19T02:50:24;90248.72;;;-2.43;75.98
22649;BME280;11491;41.942;24.220;2023-03-19T02:52:52;90242.69;;;-2.44;76.26
22649;BME280;11491;41.942;24.220;2023-03-19T02:55:19;90246.31;;;-2.60;76.59
22649;BME280;11491;41.942;24.220;2023-03-19T02:57:46;90236.13;;;-2.46;76.60
22649;BME280;11491;41.942;24.220;2023-03-19T03:02:43;90242.69;;;-2.44;76.27
22649;BME280;11491;41.942;24.220;2023-03-19T03:05:10;90234.31;;;-2.46;76.21
22649;BME280;11491;41.942;24.220;2023-03-19T03:07:38;90240.06;;;-2.39;75.18
22649;BME280;11491;41.942;24.220;2023-03-19T03:10:05;90233.75;;;-2.53;75.43
22649;BME280;11491;41.942;24.220;2023-03-19T03:12:32;90231.50;;;-2.92;76.67
22649;BME280;11491;41.942;24.220;2023-03-19T03:14:59;90243.97;;;-3.09;78.05
22649;BME280;11491;41.942;24.220;2023-03-19T03:17:26;90246.63;;;-2.99;78.02
22649;BME280;11491;41.942;24.220;2023-03-19T03:19:54;90247.75;;;-2.85;77.63
22649;BME280;11491;41.942;24.220;2023-03-19T03:22:21;90248.31;;;-2.83;77.55
22649;BME280;11491;41.942;24.220;2023-03-19T03:24:48;90244.09;;;-2.84;77.98
22649;BME280;11491;41.942;24.220;2023-03-19T03:27:14;90241.50;;;-2.73;77.42
22649;BME280;11491;41.942;24.220;2023-03-19T03:29:41;90237.94;;;-2.57;76.83
22649;BME280;11491;41.942;24.220;2023-03-19T03:32:08;90238.44;;;-2.60;76.03
22649;BME280;11491;41.942;24.220;2023-03-19T03:34:35;90242.59;;;-2.69;77.23
22649;BME280;11491;41.942;24.220;2023-03-19T03:37:03;90244.72;;;-2.61;77.28
22649;BME280;11491;41.942;24.220;2023-03-19T03:39:31;90238.41;;;-2.70;77.47
22649;BME280;11491;41.942;24.220;2023-03-19T03:41:57;90249.47;;;-2.53;76.92
22649;BME280;11491;41.942;24.220;2023-03-19T03:44:24;90247.44;;;-2.41;76.13
22649;BME280;11491;41.942;24.220;2023-03-19T03:46:52;90250.84;;;-2.35;75.42
22649;BME280;11491;41.942;24.220;2023-03-19T03:49:18;90254.22;;;-2.40;75.81
22649;BME280;11491;41.942;24.220;2023-03-19T03:51:45;90251.59;;;-2.45;75.90
22649;BME280;11491;41.942;24.220;2023-03-19T03:54:14;90245.31;;;-2.39;75.52
22649;BME280;11491;41.942;24.220;2023-03-19T03:56:41;90256.56;;;-2.48;76.10
22649;BME280;11491;41.942;24.220;2023-03-19T03:59:07;90251.03;;;-2.52;76.11
22649;BME280;11491;41.942;24.220;2023-03-19T04:01:35;90262.56;;;-2.58;76.74
22649;BME280;11491;41.942;24.220;2023-03-19T04:04:01;90261.25;;;-2.55;77.96
22649;BME280;11491;41.942;24.220;2023-03-19T04:06:28;90264.66;;;-2.55;78.10
22649;BME280;11491;41.942;24.220;2023-03-19T04:08:55;90258.41;;;-2.44;77.82
22649;BME280;11491;41.942;24.220;2023-03-19T04:11:23;90256.84;;;-2.45;77.83
22649;BME280;11491;41.942;24.220;2023-03-19T04:13:50;90257.38;;;-2.38;77.91
22649;BME280;11491;41.942;24.220;2023-03-19T04:16:17;90246.16;;;-2.28;77.24
22649;BME280;11491;41.942;24.220;2023-03-19T04:18:43;90268.72;;;-2.06;76.63
22649;BME280;11491;41.942;24.220;2023-03-19T04:21:10;90260.59;;;-2.05;76.45
22649;BME280;11491;41.942;24.220;2023-03-19T04:23:37;90261.91;;;-2.07;77.06
22649;BME280;11491;41.942;24.220;2023-03-19T04:26:05;90267.47;;;-1.99;76.05
22649;BME280;11491;41.942;24.220;2023-03-19T04:28:33;90275.56;;;-2.05;76.64
22649;BME280;11491;41.942;24.220;2023-03-19T04:31:01;90271.63;;;-1.98;76.26
22649;BME280;11491;41.942;24.220;2023-03-19T04:33:29;90271.63;;;-2.03;76.38
22649;BME280;11491;41.942;24.220;2023-03-19T04:35:56;90260.59;;;-2.15;75.88
22649;BME280;11491;41.942;24.220;2023-03-19T04:38:24;90273.16;;;-2.17;76.16
22649;BME280;11491;41.942;24.220;2023-03-19T04:40:52;90288.88;;;-2.17;76.60
22649;BME280;11491;41.942;24.220;2023-03-19T04:43:19;90283.13;;;-2.14;77.23
22649;BME280;11491;41.942;24.220;2023-03-19T04:45:48;90282.09;;;-2.08;76.88
22649;BME280;11491;41.942;24.220;2023-03-19T04:48:15;90300.94;;;-2.16;76.98
22649;BME280;11491;41.942;24.220;2023-03-19T04:50:42;90291.50;;;-2.12;77.26
22649;BME280;11491;41.942;24.220;2023-03-19T04:53:10;90296.72;;;-2.22;77.37
22649;BME280;11491;41.942;24.220;2023-03-19T04:55:37;90293.09;;;-2.11;76.92
22649;BME280;11491;41.942;24.220;2023-03-19T04:58:04;90278.72;;;-2.03;76.06
22649;BME280;11491;41.942;24.220;2023-03-19T05:00:31;90298.91;;;-1.93;75.91
22649;BME280;11491;41.942;24.220;2023-03-19T05:02:59;90292.09;;;-1.95;76.45
22649;BME280;11491;41.942;24.220;2023-03-19T05:05:26;90296.03;;;-1.82;75.81
22649;BME280;11491;41.942;24.220;2023-03-19T05:07:52;90301.03;;;-1.75;75.23
22649;BME280;11491;41.942;24.220;2023-03-19T05:10:19;90297.34;;;-1.74;75.65
22649;BME280;11491;41.942;24.220;2023-03-19T05:12:46;90298.94;;;-1.73;75.27
22649;BME280;11491;41.942;24.220;2023-03-19T05:15:13;90302.59;;;-1.74;74.86
22649;BME280;11491;41.942;24.220;2023-03-19T05:17:40;90308.34;;;-1.87;75.66
22649;BME280;11491;41.942;24.220;2023-03-19T05:20:10;90313.09;;;-1.74;76.19
22649;BME280;11491;41.942;24.220;2023-03-19T05:22:37;90304.19;;;-1.73;76.40
22649;BME280;11491;41.942;24.220;2023-03-19T05:25:04;90309.44;;;-1.73;76.30
22649;BME280;11491;41.942;24.220;2023-03-19T05:27:31;90304.22;;;-1.63;77.04
22649;BME280;11491;41.942;24.220;2023-03-19T05:29:58;90304.22;;;-1.53;76.51
22649;BME280;11491;41.942;24.220;2023-03-19T05:32:25;90306.84;;;-1.37;76.25
22649;BME280;11491;41.942;24.220;2023-03-19T05:34:52;90310.00;;;-1.25;75.49
22649;BME280;11491;41.942;24.220;2023-03-19T05:37:20;90310.53;;;-1.23;75.53
22649;BME280;11491;41.942;24.220;2023-03-19T05:39:47;90314.22;;;-1.14;74.89
22649;BME280;11491;41.942;24.220;2023-03-19T05:42:14;90307.66;;;-1.11;74.85
22649;BME280;11491;41.942;24.220;2023-03-19T05:44:41;90309.50;;;-1.01;75.03
22649;BME280;11491;41.942;24.220;2023-03-19T05:47:09;90307.09;;;-0.93;74.54
22649;BME280;11491;41.942;24.220;2023-03-19T05:49:36;90316.28;;;-0.80;75.15
22649;BME280;11491;41.942;24.220;2023-03-19T05:52:04;90314.69;;;-0.71;74.07
22649;BME280;11491;41.942;24.220;2023-03-19T05:54:32;90314.13;;;-0.57;74.55
22649;BME280;11491;41.942;24.220;2023-03-19T05:56:59;90312.00;;;-0.45;74.54
22649;BME280;11491;41.942;24.220;2023-03-19T05:59:25;90316.94;;;-0.28;74.40
22649;BME280;11491;41.942;24.220;2023-03-19T06:01:52;90310.88;;;-0.18;74.69
22649;BME280;11491;41.942;24.220;2023-03-19T06:04:19;90305.34;;;-0.12;74.84
22649;BME280;11491;41.942;24.220;2023-03-19T06:06:46;90300.81;;;-0.01;75.93
22649;BME280;11491;41.942;24.220;2023-03-19T06:09:12;90308.06;;;0.28;75.19
22649;BME280;11491;41.942;24.220;2023-03-19T06:11:41;90308.41;;;0.55;74.50
22649;BME280;11491;41.942;24.220;2023-03-19T06:14:08;90303.56;;;0.73;73.56
22649;BME280;11491;41.942;24.220;2023-03-19T06:16:35;90310.22;;;0.94;72.61
22649;BME280;11491;41.942;24.220;2023-03-19T06:19:01;90308.50;;;1.14;72.66
22649;BME280;11491;41.942;24.220;2023-03-19T06:21:28;90308.25;;;1.44;71.46
22649;BME280;11491;41.942;24.220;2023-03-19T06:23:56;90300.66;;;1.67;72.10
22649;BME280;11491;41.942;24.220;2023-03-19T06:26:25;90298.63;;;1.83;71.45
22649;BME280;11491;41.942;24.220;2023-03-19T06:28:53;90311.19;;;2.15;70.20
22649;BME280;11491;41.942;24.220;2023-03-19T06:31:20;90302.38;;;2.44;69.00
22649;BME280;11491;41.942;24.220;2023-03-19T06:33:47;90294.38;;;2.68;68.56
22649;BME280;11491;41.942;24.220;2023-03-19T06:36:14;90302.44;;;2.95;68.67
22649;BME280;11491;41.942;24.220;2023-03-19T06:38:42;90312.31;;;3.22;67.39
22649;BME280;11491;41.942;24.220;2023-03-19T06:41:08;90304.97;;;3.52;66.45
22649;BME280;11491;41.942;24.220;2023-03-19T06:43:35;90301.88;;;3.78;66.16
22649;BME280;11491;41.942;24.220;2023-03-19T06:46:04;90306.09;;;4.06;65.45
22649;BME280;11491;41.942;24.220;2023-03-19T06:48:31;90297.97;;;4.30;65.23
22649;BME280;11491;41.942;24.220;2023-03-19T06:50:58;90302.75;;;4.56;64.48
22649;BME280;11491;41.942;24.220;2023-03-19T06:53:25;90304.06;;;4.81;64.50
22649;BME280;11491;41.942;24.220;2023-03-19T06:55:52;90297.84;;;5.00;64.42
22649;BME280;11491;41.942;24.220;2023-03-19T06:58:20;90301.47;;;5.26;63.81
22649;BME280;11491;41.942;24.220;2023-03-19T07:00:47;90291.94;;;5.48;63.15
22649;BME280;11491;41.942;24.220;2023-03-19T07:03:15;90292.03;;;5.65;62.99
22649;BME280;11491;41.942;24.220;2023-03-19T07:05:41;90290.91;;;5.89;62.21
22649;BME280;11491;41.942;24.220;2023-03-19T07:08:08;90291.63;;;6.03;63.08
22649;BME280;11491;41.942;24.220;2023-03-19T07:10:36;90292.38;;;6.35;62.23
22649;BME280;11491;41.942;24.220;2023-03-19T07:13:03;90290.44;;;6.66;62.78
22649;BME280;11491;41.942;24.220;2023-03-19T07:15:30;90287.34;;;6.99;62.24
22649;BME280;11491;41.942;24.220;2023-03-19T07:17:57;90286.88;;;7.32;61.42
22649;BME280;11491;41.942;24.220;2023-03-19T07:20:25;90287.97;;;7.48;61.17
22649;BME280;11491;41.942;24.220;2023-03-19T07:22:52;90288.06;;;7.78;60.79
22649;BME280;11491;41.942;24.220;2023-03-19T07:25:20;90279.69;;;8.06;60.17
22649;BME280;11491;41.942;24.220;2023-03-19T07:27:46;90284.78;;;8.28;60.59
22649;BME280;11491;41.942;24.220;2023-03-19T07:30:14;90280.97;;;8.47;59.40
22649;BME280;11491;41.942;24.220;2023-03-19T07:32:41;90280.16;;;8.55;59.11
22649;BME280;11491;41.942;24.220;2023-03-19T07:35:08;90274.66;;;8.81;57.67
22649;BME280;11491;41.942;24.220;2023-03-19T07:37:37;90278.00;;;8.99;57.49
22649;BME280;11491;41.942;24.220;2023-03-19T07:40:04;90281.47;;;9.20;56.94
22649;BME280;11491;41.942;24.220;2023-03-19T07:42:31;90276.53;;;9.31;55.50
22649;BME280;11491;41.942;24.220;2023-03-19T07:45:00;90283.09;;;9.34;56.36
22649;BME280;11491;41.942;24.220;2023-03-19T07:47:28;90275.88;;;9.34;57.49
22649;BME280;11491;41.942;24.220;2023-03-19T07:49:55;90283.28;;;9.28;57.96
22649;BME280;11491;41.942;24.220;2023-03-19T07:52:22;90281.81;;;9.40;56.02
22649;BME280;11491;41.942;24.220;2023-03-19T07:54:50;90270.78;;;9.62;55.32
22649;BME280;11491;41.942;24.220;2023-03-19T07:57:17;90266.47;;;9.70;54.26
22649;BME280;11491;41.942;24.220;2023-03-19T07:59:44;90270.78;;;9.62;54.18
22649;BME280;11491;41.942;24.220;2023-03-19T08:02:11;90272.16;;;9.81;55.49
22649;BME280;11491;41.942;24.220;2023-03-19T08:04:38;90269.28;;;9.86;55.02
22649;BME280;11491;41.942;24.220;2023-03-19T08:07:05;90271.94;;;9.86;54.07
22649;BME280;11491;41.942;24.220;2023-03-19T08:09:35;90264.84;;;9.90;54.08
22649;BME280;11491;41.942;24.220;2023-03-19T08:12:03;90268.00;;;10.04;51.38
22649;BME280;11491;41.942;24.220;2023-03-19T08:14:31;90262.22;;;10.02;51.59
22649;BME280;11491;41.942;24.220;2023-03-19T08:16:57;90260.41;;;9.94;52.56
22649;BME280;11491;41.942;24.220;2023-03-19T08:19:24;90260.66;;;10.01;54.70
22649;BME280;11491;41.942;24.220;2023-03-19T08:21:51;90261.34;;;10.23;54.16
22649;BME280;11491;41.942;24.220;2023-03-19T08:24:18;90259.41;;;10.56;53.77
22649;BME280;11491;41.942;24.220;2023-03-19T08:26:45;90262.72;;;10.90;52.37
22649;BME280;11491;41.942;24.220;2023-03-19T08:29:13;90254.44;;;11.20;51.48
22649;BME280;11491;41.942;24.220;2023-03-19T08:31:40;90256.13;;;11.00;47.85
22649;BME280;11491;41.942;24.220;2023-03-19T08:34:07;90263.81;;;11.26;49.43
22649;BME280;11491;41.942;24.220;2023-03-19T08:36:35;90260.81;;;11.56;47.10
22649;BME280;11491;41.942;24.220;2023-03-19T08:39:02;90264.72;;;11.87;47.18
22649;BME280;11491;41.942;24.220;2023-03-19T08:41:29;90252.66;;;11.93;49.47
22649;BME280;11491;41.942;24.220;2023-03-19T08:43:56;90263.16;;;11.85;47.49
22649;BME280;11491;41.942;24.220;2023-03-19T08:46:24;90262.84;;;11.47;47.87
22649;BME280;11491;41.942;24.220;2023-03-19T08:48:51;90252.69;;;11.80;49.31
22649;BME280;11491;41.942;24.220;2023-03-19T08:51:18;90261.47;;;11.93;46.97
22649;BME280;11491;41.942;24.220;2023-03-19T08:53:45;90261.69;;;12.16;47.23
22649;BME280;11491;41.942;24.220;2023-03-19T08:56:12;90255.28;;;12.37;45.97
22649;BME280;11491;41.942;24.220;2023-03-19T08:58:39;90261.69;;;12.16;46.83
22649;BME280;11491;41.942;24.220;2023-03-19T09:01:08;90255.28;;;12.37;46.20
22649;BME280;11491;41.942;24.220;2023-03-19T09:03:38;90261.19;;;12.58;45.52
22649;BME280;11491;41.942;24.220;2023-03-19T09:06:08;90249.56;;;12.86;47.42
22649;BME280;11491;41.942;24.220;2023-03-19T09:08:36;90258.22;;;12.95;44.44
22649;BME280;11491;41.942;24.220;2023-03-19T09:11:04;90247.53;;;13.14;44.21
22649;BME280;11491;41.942;24.220;2023-03-19T09:13:31;90246.63;;;13.26;43.01
22649;BME280;11491;41.942;24.220;2023-03-19T09:15:58;90249.53;;;13.53;43.49
22649;BME280;11491;41.942;24.220;2023-03-19T09:18:25;90247.91;;;13.87;41.49
22649;BME280;11491;41.942;24.220;2023-03-19T09:20:54;90253.03;;;14.15;40.57
22649;BME280;11491;41.942;24.220;2023-03-19T09:23:21;90249.91;;;14.13;41.64
22649;BME280;11491;41.942;24.220;2023-03-19T09:25:48;90258.16;;;14.43;41.97
22649;BME280;11491;41.942;24.220;2023-03-19T09:28:16;90241.19;;;14.85;40.59
22649;BME280;11491;41.942;24.220;2023-03-19T09:30:44;90240.75;;;14.57;40.17
22649;BME280;11491;41.942;24.220;2023-03-19T09:33:12;90240.91;;;14.25;40.70
22649;BME280;11491;41.942;24.220;2023-03-19T09:35:39;90240.91;;;14.25;42.19
22649;BME280;11491;41.942;24.220;2023-03-19T09:38:08;90235.16;;;14.46;42.09
22649;BME280;11491;41.942;24.220;2023-03-19T09:40:37;90222.06;;;14.91;39.09
22649;BME280;11491;41.942;24.220;2023-03-19T09:43:24;90230.44;;;15.39;40.17
22649;BME280;11491;41.942;24.220;2023-03-19T09:45:55;90216.44;;;15.29;39.81
22649;BME280;11491;41.942;24.220;2023-03-19T09:48:30;90219.41;;;15.78;37.67
22649;BME280;11491;41.942;24.220;2023-03-19T09:50:59;90207.84;;;15.77;36.86
22649;BME280;11491;41.942;24.220;2023-03-19T09:53:37;90214.13;;;15.58;35.81
22649;BME280;11491;41.942;24.220;2023-03-19T09:56:12;90219.13;;;15.29;37.03
22649;BME280;11491;41.942;24.220;2023-03-19T09:58:40;90212.66;;;15.64;36.52
22649;BME280;11491;41.942;24.220;2023-03-19T10:01:19;90208.78;;;15.92;36.94
22649;BME280;11491;41.942;24.220;2023-03-19T10:04:03;90202.28;;;16.34;36.05
22649;BME280;11491;41.942;24.220;2023-03-19T10:06:36;90201.25;;;16.90;34.51
22649;BME280;11491;41.942;24.220;2023-03-19T10:09:30;90198.63;;;17.63;34.86
22649;BME280;11491;41.942;24.220;2023-03-19T10:12:10;90197.34;;;18.27;32.48
22649;BME280;11491;41.942;24.220;2023-03-19T10:15:03;90176.94;;;18.87;33.16
22649;BME280;11491;41.942;24.220;2023-03-19T10:17:39;90192.00;;;19.20;31.89
22649;BME280;11491;41.942;24.220;2023-03-19T10:20:15;90186.59;;;19.09;30.40
22649;BME280;11491;41.942;24.220;2023-03-19T10:22:45;90181.97;;;19.13;31.03
22649;BME280;11491;41.942;24.220;2023-03-19T10:25:18;90182.34;;;19.15;29.19
22649;BME280;11491;41.942;24.220;2023-03-19T10:27:51;90165.63;;;19.56;31.44
22649;BME280;11491;41.942;24.220;2023-03-19T10:30:20;90166.03;;;19.44;30.04
22649;BME280;11491;41.942;24.220;2023-03-19T10:32:52;90161.84;;;19.18;31.08
22649;BME280;11491;41.942;24.220;2023-03-19T10:35:22;90157.19;;;19.19;32.05
22649;BME280;11491;41.942;24.220;2023-03-19T10:37:50;90157.97;;;19.08;30.62
22649;BME280;11491;41.942;24.220;2023-03-19T10:40:25;90160.31;;;18.99;31.05
22649;BME280;11491;41.942;24.220;2023-03-19T10:43:03;90161.84;;;18.93;30.12
22649;BME280;11491;41.942;24.220;2023-03-19T10:45:33;90151.03;;;18.86;30.71
22649;BME280;11491;41.942;24.220;2023-03-19T10:48:02;90155.63;;;18.75;30.47
22649;BME280;11491;41.942;24.220;2023-03-19T10:50:31;90147.16;;;18.80;31.09
22649;BME280;11491;41.942;24.220;2023-03-19T10:53:04;90143.28;;;18.88;29.36
22649;BME280;11491;41.942;24.220;2023-03-19T10:55:33;90147.13;;;18.65;30.09
22649;BME280;11491;41.942;24.220;2023-03-19T10:58:02;90147.84;;;18.23;30.19
22649;BME280;11491;41.942;24.220;2023-03-19T11:00:30;90149.03;;;18.33;31.16
22649;BME280;11491;41.942;24.220;2023-03-19T11:02:58;90147.00;;;17.86;30.95
22649;BME280;11491;41.942;24.220;2023-03-19T11:05:30;90133.75;;;17.67;32.13
22649;BME280;11491;41.942;24.220;2023-03-19T11:08:00;90134.50;;;17.57;31.41
22649;BME280;11491;41.942;24.220;2023-03-19T11:10:28;90132.94;;;17.52;32.76
22649;BME280;11491;41.942;24.220;2023-03-19T11:12:58;90129.06;;;17.50;32.21
22649;BME280;11491;41.942;24.220;2023-03-19T11:15:29;90134.44;;;17.42;31.79
22649;BME280;11491;41.942;24.220;2023-03-19T11:17:59;90111.34;;;16.86;33.10
22649;BME280;11491;41.942;24.220;2023-03-19T11:20:29;90123.31;;;16.85;33.09
22649;BME280;11491;41.942;24.220;2023-03-19T11:22:58;90121.75;;;16.84;33.64
22649;BME280;11491;41.942;24.220;2023-03-19T11:25:28;90120.34;;;17.08;33.74
22649;BME280;11491;41.942;24.220;2023-03-19T11:28:04;90117.47;;;17.53;33.23
22649;BME280;11491;41.942;24.220;2023-03-19T11:30:37;90126.53;;;18.00;32.48
22649;BME280;11491;41.942;24.220;2023-03-19T11:33:51;90114.56;;;18.01;31.36
22649;BME280;11491;41.942;24.220;2023-03-19T11:36:25;90118.81;;;17.95;32.34
22649;BME280;11491;41.942;24.220;2023-03-19T11:39:16;90111.09;;;18.04;31.56
22649;BME280;11491;41.942;24.220;2023-03-19T11:41:52;90112.31;;;18.39;32.72
22649;BME280;11491;41.942;24.220;2023-03-19T11:44:29;90100.72;;;18.42;31.59
22649;BME280;11491;41.942;24.220;2023-03-19T11:47:04;90108.41;;;18.25;31.90
22649;BME280;11491;41.942;24.220;2023-03-19T11:49:45;90109.16;;;18.08;31.49
22649;BME280;11491;41.942;24.220;2023-03-19T11:52:23;90106.88;;;18.06;32.54
22649;BME280;11491;41.942;24.220;2023-03-19T11:55:09;90094.41;;;17.77;31.03
22649;BME280;11491;41.942;24.220;2023-03-19T11:57:54;90099.03;;;17.69;32.79
22649;BME280;11491;41.942;24.220;2023-03-19T12:00:29;90092.94;;;18.04;32.15
22649;BME280;11491;41.942;24.220;2023-03-19T12:06:17;90082.94;;;18.37;31.96
22649;BME280;11491;41.942;24.220;2023-03-19T12:08:50;90090.66;;;18.71;32.34
22649;BME280;11491;41.942;24.220;2023-03-19T12:11:23;90077.50;;;18.55;31.37
22649;BME280;11491;41.942;24.220;2023-03-19T12:14:05;90082.91;;;18.48;31.28
22649;BME280;11491;41.942;24.220;2023-03-19T12:16:51;90080.22;;;18.62;31.58
22649;BME280;11491;41.942;24.220;2023-03-19T12:19:51;90083.59;;;19.38;32.24
22649;BME280;11491;41.942;24.220;2023-03-19T12:22:31;90088.06;;;19.84;31.11
22649;BME280;11491;41.942;24.220;2023-03-19T12:25:16;90083.47;;;19.67;31.22
22649;BME280;11491;41.942;24.220;2023-03-19T12:27:51;90082.88;;;19.12;30.58
22649;BME280;11491;41.942;24.220;2023-03-19T12:30:28;90082.00;;;19.44;31.46
22649;BME280;11491;41.942;24.220;2023-03-19T12:33:08;90072.53;;;19.85;30.64
22649;BME280;11491;41.942;24.220;2023-03-19T12:35:37;90079.66;;;19.53;30.04
22649;BME280;11491;41.942;24.220;2023-03-19T12:38:10;90067.34;;;19.31;30.21
22649;BME280;11491;41.942;24.220;2023-03-19T12:40:42;90076.69;;;19.08;30.36
22649;BME280;11491;41.942;24.220;2023-03-19T12:43:16;90071.91;;;19.55;31.83
22649;BME280;11491;41.942;24.220;2023-03-19T12:45:43;90071.44;;;19.75;30.86
22649;BME280;11491;41.942;24.220;2023-03-19T12:48:15;90054.03;;;19.62;30.22
22649;BME280;11491;41.942;24.220;2023-03-19T12:50:48;90047.13;;;19.53;31.25
22649;BME280;11491;41.942;24.220;2023-03-19T12:53:25;90061.16;;;19.27;30.60
22649;BME280;11491;41.942;24.220;2023-03-19T12:55:56;90071.59;;;19.32;30.99
22649;BME280;11491;41.942;24.220;2023-03-19T12:58:35;90067.34;;;19.31;31.92
22649;BME280;11491;41.942;24.220;2023-03-19T13:01:06;90065.75;;;19.37;30.75
22649;BME280;11491;41.942;24.220;2023-03-19T13:03:42;90050.97;;;19.52;30.92
22649;BME280;11491;41.942;24.220;2023-03-19T13:06:16;90061.00;;;19.70;31.49
22649;BME280;11491;41.942;24.220;2023-03-19T13:08:49;90057.97;;;19.53;30.16
22649;BME280;11491;41.942;24.220;2023-03-19T13:11:24;90052.94;;;19.48;30.28